createdAt,value
2022-11-13T00:00:28.786Z,94.70
2022-11-13T00:03:30.327Z,94.70
2022-11-13T00:06:31.849Z,94.80
2022-11-13T00:09:33.361Z,94.60
2022-11-13T00:12:34.913Z,94.70
2022-11-13T00:15:36.435Z,94.60
2022-11-13T00:18:39.696Z,94.70
2022-11-13T00:21:41.243Z,94.80
2022-11-13T00:24:42.798Z,94.90
2022-11-13T00:27:44.317Z,94.80
2022-11-13T00:30:45.838Z,94.90
2022-11-13T00:37:09.067Z,94.80
2022-11-13T00:40:11.000Z,94.70
2022-11-13T00:43:12.532Z,94.60
2022-11-13T00:46:14.093Z,94.70
2022-11-13T00:49:16.322Z,94.80
2022-11-13T00:52:17.829Z,94.60
2022-11-13T00:55:19.434Z,94.70
2022-11-13T00:58:21.190Z,94.70
2022-11-13T01:04:24.635Z,94.90
2022-11-13T01:07:26.196Z,94.80
2022-11-13T01:10:27.784Z,94.70
2022-11-13T01:13:29.487Z,94.80
2022-11-13T01:16:31.119Z,94.60
2022-11-13T01:19:32.693Z,94.60
2022-11-13T01:22:34.257Z,94.60
2022-11-13T01:25:36.177Z,94.40
2022-11-13T01:28:39.143Z,94.40
2022-11-13T01:31:40.788Z,95.00
2022-11-13T01:34:42.351Z,94.40
2022-11-13T01:37:43.910Z,94.20
2022-11-13T01:40:48.434Z,94.10
2022-11-13T01:43:50.436Z,94.00
2022-11-13T01:46:56.621Z,94.00
2022-11-13T01:50:02.218Z,94.00
2022-11-13T01:53:04.260Z,93.80
2022-11-13T01:56:07.350Z,93.70
2022-11-13T01:59:13.845Z,93.80
2022-11-13T02:02:15.409Z,94.10
2022-11-13T02:05:17.141Z,94.00
2022-11-13T02:08:18.711Z,94.30
2022-11-13T02:11:20.733Z,94.30
2022-11-13T02:14:25.306Z,94.40
2022-11-13T02:17:32.578Z,94.50
2022-11-13T02:20:40.774Z,94.60
2022-11-13T02:24:14.951Z,94.70
2022-11-13T02:27:41.229Z,93.90
2022-11-13T02:30:43.043Z,93.80
2022-11-13T02:33:44.572Z,94.40
2022-11-13T02:36:46.109Z,94.40
2022-11-13T02:39:47.670Z,94.30
2022-11-13T02:42:49.249Z,94.40
2022-11-13T02:45:50.802Z,94.40
2022-11-13T02:48:52.384Z,94.20
2022-11-13T02:51:54.000Z,94.40
2022-11-13T02:54:55.523Z,94.40
2022-11-13T02:57:57.243Z,94.50
2022-11-13T03:01:02.507Z,94.60
2022-11-13T03:04:04.183Z,94.50
2022-11-13T03:07:05.764Z,94.50
2022-11-13T03:10:08.554Z,94.40
2022-11-13T03:13:10.076Z,94.40
2022-11-13T03:16:14.965Z,94.30
2022-11-13T03:19:16.487Z,94.20
2022-11-13T03:22:18.160Z,94.40
2022-11-13T03:25:19.707Z,94.40
2022-11-13T03:28:21.290Z,94.40
2022-11-13T03:31:22.838Z,94.60
2022-11-13T03:34:24.396Z,94.60
2022-11-13T03:37:25.931Z,94.70
2022-11-13T03:40:27.482Z,94.70
2022-11-13T03:43:29.095Z,94.60
2022-11-13T03:46:30.792Z,94.70
2022-11-13T03:49:32.401Z,94.60
2022-11-13T03:52:33.936Z,94.60
2022-11-13T03:55:35.535Z,94.60
2022-11-13T03:58:40.093Z,94.50
2022-11-13T04:01:42.084Z,94.60
2022-11-13T04:04:44.627Z,94.50
2022-11-13T04:07:46.235Z,94.30
2022-11-13T04:10:47.797Z,93.60
2022-11-13T04:13:49.376Z,93.00
2022-11-13T04:16:50.926Z,93.50
2022-11-13T04:19:52.458Z,92.40
2022-11-13T04:22:55.500Z,92.20
2022-11-13T04:25:57.454Z,92.60
2022-11-13T04:28:58.970Z,91.40
2022-11-13T04:32:00.608Z,91.50
2022-11-13T04:35:02.471Z,91.40
2022-11-13T04:38:04.008Z,91.50
2022-11-13T04:41:24.332Z,91.60
2022-11-13T04:44:25.865Z,91.10
2022-11-13T04:47:27.387Z,91.50
2022-11-13T04:50:29.100Z,91.20
2022-11-13T04:53:30.719Z,90.70
2022-11-13T04:56:32.409Z,90.40
2022-11-13T04:59:33.943Z,90.50
2022-11-13T05:02:35.541Z,90.40
2022-11-13T05:05:37.106Z,90.60
2022-11-13T05:08:39.509Z,90.60
2022-11-13T05:11:41.057Z,90.50
2022-11-13T05:14:42.615Z,90.70
2022-11-13T05:17:44.186Z,91.10
2022-11-13T05:20:46.029Z,91.30
2022-11-13T05:23:47.614Z,91.40
2022-11-13T05:26:49.162Z,91.20
2022-11-13T05:29:50.699Z,91.00
2022-11-13T05:32:52.395Z,91.20
2022-11-13T05:35:53.944Z,91.20
2022-11-13T05:38:55.494Z,91.40
2022-11-13T05:41:57.135Z,91.40
2022-11-13T05:44:58.688Z,91.60
2022-11-13T05:48:00.242Z,91.60
2022-11-13T05:51:16.187Z,91.80
2022-11-13T05:54:17.725Z,91.00
2022-11-13T05:57:19.308Z,92.10
2022-11-13T06:00:20.853Z,92.00
2022-11-13T06:03:22.421Z,92.70
2022-11-13T06:06:25.845Z,92.10
2022-11-13T06:09:27.442Z,92.20
2022-11-13T06:12:29.824Z,92.80
2022-11-13T06:15:31.329Z,92.10
2022-11-13T06:18:34.110Z,92.20
2022-11-13T06:21:40.123Z,92.30
2022-11-13T06:24:41.739Z,92.30
2022-11-13T06:27:43.292Z,93.00
2022-11-13T06:30:44.893Z,92.50
2022-11-13T06:33:46.876Z,92.50
2022-11-13T06:36:48.383Z,92.40
2022-11-13T06:39:49.973Z,92.50
2022-11-13T06:42:52.695Z,92.30
2022-11-13T06:45:54.885Z,92.50
2022-11-13T06:48:56.711Z,92.50
2022-11-13T06:51:58.296Z,92.50
2022-11-13T06:55:01.286Z,92.90
2022-11-13T06:58:02.929Z,92.40
2022-11-13T07:01:09.344Z,92.50
2022-11-13T07:04:12.467Z,91.90
2022-11-13T07:07:14.076Z,92.50
2022-11-13T07:10:15.952Z,92.60
2022-11-13T07:13:17.507Z,92.70
2022-11-13T07:16:19.583Z,92.60
2022-11-13T07:19:21.143Z,92.70
2022-11-13T07:22:22.666Z,93.00
2022-11-13T07:25:24.898Z,92.90
2022-11-13T07:28:26.764Z,93.10
2022-11-13T07:31:28.550Z,92.90
2022-11-13T07:34:30.151Z,92.90
2022-11-13T07:37:31.690Z,92.90
2022-11-13T07:40:33.360Z,92.90
2022-11-13T07:43:35.199Z,92.80
2022-11-13T07:46:37.353Z,93.00
2022-11-13T07:49:38.871Z,93.00
2022-11-13T07:52:40.400Z,93.00
2022-11-13T07:55:42.174Z,92.80
2022-11-13T07:58:43.772Z,92.90
2022-11-13T08:01:45.342Z,93.10
2022-11-13T08:04:46.887Z,93.10
2022-11-13T08:07:51.358Z,93.00
2022-11-13T08:10:53.144Z,93.30
2022-11-13T08:13:54.766Z,93.20
2022-11-13T08:16:56.531Z,93.10
2022-11-13T08:19:58.083Z,93.40
2022-11-13T08:23:01.118Z,93.20
2022-11-13T08:26:06.497Z,93.30
2022-11-13T08:29:08.241Z,93.20
2022-11-13T08:32:10.119Z,93.80
2022-11-13T08:35:15.958Z,93.20
2022-11-13T08:38:20.983Z,93.20
2022-11-13T08:41:22.591Z,93.10
2022-11-13T08:44:24.103Z,93.30
2022-11-13T08:47:29.601Z,93.30
2022-11-13T08:50:32.710Z,93.30
2022-11-13T08:53:34.243Z,93.40
2022-11-13T08:56:35.856Z,93.30
2022-11-13T08:59:37.613Z,93.20
2022-11-13T09:02:39.211Z,93.50
2022-11-13T09:05:40.743Z,93.30
2022-11-13T09:08:42.262Z,93.40
2022-11-13T09:11:46.365Z,93.20
2022-11-13T09:14:47.965Z,93.30
2022-11-13T09:17:49.513Z,93.20
2022-11-13T09:20:51.160Z,93.40
2022-11-13T09:23:52.689Z,93.20
2022-11-13T09:26:54.243Z,93.10
2022-11-13T09:29:55.949Z,93.20
2022-11-13T09:33:00.206Z,93.10
2022-11-13T09:36:02.008Z,93.00
2022-11-13T09:39:06.899Z,92.90
2022-11-13T09:42:19.954Z,93.50
2022-11-13T09:45:21.795Z,92.80
2022-11-13T09:48:36.917Z,92.60
2022-11-13T09:51:39.320Z,91.50
2022-11-13T09:54:41.118Z,92.00
2022-11-13T09:58:17.038Z,91.70
2022-11-13T10:01:58.070Z,90.80
2022-11-13T10:05:14.649Z,90.90
2022-11-13T10:08:18.435Z,90.90
2022-11-13T10:11:26.312Z,91.40
2022-11-13T10:14:46.263Z,91.30
2022-11-13T10:18:04.411Z,90.60
2022-11-13T10:21:17.270Z,90.50
2022-11-13T10:24:27.269Z,91.10
2022-11-13T10:27:28.860Z,90.80
2022-11-13T10:30:30.473Z,90.80
2022-11-13T10:33:34.338Z,90.70
2022-11-13T10:36:38.740Z,90.60
2022-11-13T10:39:44.686Z,90.00
2022-11-13T10:42:46.223Z,90.00
2022-11-13T10:45:56.793Z,89.50
2022-11-13T10:49:10.321Z,89.30
2022-11-13T10:52:29.830Z,89.30
2022-11-13T10:55:34.101Z,87.70
2022-11-13T10:58:35.606Z,87.40
2022-11-13T11:01:38.066Z,87.70
2022-11-13T11:04:39.653Z,87.60
2022-11-13T11:07:41.634Z,87.30
2022-11-13T11:11:11.935Z,88.10
2022-11-13T11:14:37.027Z,87.80
2022-11-13T11:17:52.021Z,87.30
2022-11-13T11:20:57.281Z,87.20
2022-11-13T11:24:06.258Z,87.30
2022-11-13T11:27:23.587Z,86.60
2022-11-13T11:30:27.593Z,84.80
2022-11-13T11:33:36.712Z,87.00
2022-11-13T11:37:19.943Z,86.30
2022-11-13T11:40:56.120Z,84.30
2022-11-13T11:44:05.591Z,84.20
2022-11-13T11:47:15.498Z,84.90
2022-11-13T11:50:26.911Z,85.90
2022-11-13T11:53:38.730Z,86.30
2022-11-13T11:56:52.143Z,86.50
2022-11-13T12:00:10.573Z,84.00
2022-11-13T12:03:47.231Z,83.90
2022-11-13T12:06:59.338Z,85.30
2022-11-13T12:10:19.532Z,83.00
2022-11-13T12:13:28.780Z,82.90
2022-11-13T12:17:00.227Z,82.80
2022-11-13T12:20:25.921Z,82.10
2022-11-13T12:23:35.190Z,84.20
2022-11-13T12:26:50.293Z,83.30
2022-11-13T12:30:07.409Z,81.40
2022-11-13T12:33:24.825Z,81.30
2022-11-13T12:36:27.415Z,80.90
2022-11-13T12:39:44.390Z,82.50
2022-11-13T12:42:49.279Z,80.80
2022-11-13T12:46:10.650Z,82.50
2022-11-13T12:49:30.451Z,80.60
2022-11-13T12:52:32.019Z,80.40
2022-11-13T12:55:35.997Z,82.90
2022-11-13T12:58:37.561Z,83.10
2022-11-13T13:01:48.605Z,82.80
2022-11-13T13:05:07.707Z,79.70
2022-11-13T13:08:32.042Z,79.50
2022-11-13T13:12:00.589Z,79.00
2022-11-13T13:15:29.482Z,79.20
2022-11-13T13:18:34.474Z,79.00
2022-11-13T13:21:45.825Z,81.20
2022-11-13T13:25:03.479Z,80.60
2022-11-13T13:28:08.005Z,78.40
2022-11-13T13:31:12.342Z,80.70
2022-11-13T13:34:38.290Z,80.40
2022-11-13T13:37:51.566Z,79.10
2022-11-13T13:41:00.526Z,80.50
2022-11-13T13:44:39.575Z,80.30
2022-11-13T13:47:47.213Z,78.10
2022-11-13T13:51:12.286Z,80.20
2022-11-13T13:54:22.284Z,78.40
2022-11-13T13:57:23.998Z,80.60
2022-11-13T14:00:26.175Z,80.10
2022-11-13T14:03:29.205Z,81.00
2022-11-13T14:06:31.875Z,79.50
2022-11-13T14:09:33.502Z,79.40
2022-11-13T14:12:35.014Z,78.90
2022-11-13T14:15:36.815Z,79.40
2022-11-13T14:18:38.331Z,79.50
2022-11-13T14:21:40.354Z,79.80
2022-11-13T14:24:56.409Z,79.50
2022-11-13T14:27:58.055Z,79.80
2022-11-13T14:31:06.222Z,80.10
2022-11-13T14:34:21.922Z,80.50
2022-11-13T14:37:29.521Z,80.60
2022-11-13T14:40:33.843Z,80.40
2022-11-13T14:43:35.604Z,80.50
2022-11-13T14:46:44.183Z,81.00
2022-11-13T14:49:45.717Z,81.30
2022-11-13T14:53:25.205Z,81.30
2022-11-13T14:56:36.006Z,81.60
2022-11-13T14:59:42.345Z,82.10
2022-11-13T15:02:44.534Z,80.30
2022-11-13T15:05:46.129Z,82.00
2022-11-13T15:08:54.093Z,81.80
2022-11-13T15:11:55.667Z,81.70
2022-11-13T15:14:57.199Z,82.20
2022-11-13T15:17:58.872Z,82.60
2022-11-13T15:21:00.433Z,82.00
2022-11-13T15:24:02.050Z,82.10
2022-11-13T15:27:03.767Z,82.20
2022-11-13T15:30:05.683Z,82.90
2022-11-13T15:33:16.093Z,82.90
2022-11-13T15:36:17.742Z,83.60
2022-11-13T15:39:24.074Z,83.70
2022-11-13T15:42:35.929Z,82.50
2022-11-13T15:45:42.762Z,84.40
2022-11-13T15:48:46.508Z,84.60
2022-11-13T15:51:48.087Z,84.90
2022-11-13T15:54:50.280Z,86.40
2022-11-13T15:57:52.219Z,86.20
2022-11-13T16:00:53.855Z,85.10
2022-11-13T16:03:58.098Z,85.30
2022-11-13T16:06:59.727Z,85.20
2022-11-13T16:10:01.381Z,85.10
2022-11-13T16:13:03.459Z,85.70
2022-11-13T16:16:05.473Z,85.10
2022-11-13T16:19:13.210Z,85.40
2022-11-13T16:22:21.880Z,85.70
2022-11-13T16:25:32.245Z,86.40
2022-11-13T16:28:41.966Z,85.40
2022-11-13T16:31:54.589Z,86.80
2022-11-13T16:34:57.309Z,87.20
2022-11-13T16:37:58.816Z,87.60
2022-11-13T16:41:00.399Z,87.40
2022-11-13T16:44:01.953Z,87.50
2022-11-13T16:47:05.140Z,87.80
2022-11-13T16:50:24.479Z,89.00
2022-11-13T16:53:26.374Z,88.70
2022-11-13T16:56:30.061Z,87.30
2022-11-13T16:59:32.965Z,88.40
2022-11-13T17:02:34.666Z,89.10
2022-11-13T17:05:36.288Z,88.80
2022-11-13T17:08:37.989Z,89.50
2022-11-13T17:11:39.693Z,88.60
2022-11-13T17:14:41.406Z,88.80
2022-11-13T17:17:42.955Z,88.80
2022-11-13T17:20:44.893Z,89.10
2022-11-13T17:23:46.592Z,89.00
2022-11-13T17:26:48.108Z,89.20
2022-11-13T17:29:49.775Z,89.20
2022-11-13T17:32:51.310Z,89.20
2022-11-13T17:35:56.665Z,89.40
2022-11-13T17:38:58.311Z,89.20
2022-11-13T17:42:01.069Z,88.30
2022-11-13T17:45:02.687Z,88.60
2022-11-13T17:48:04.622Z,89.50
2022-11-13T17:51:07.566Z,88.00
2022-11-13T17:54:09.210Z,87.70
2022-11-13T17:57:11.320Z,87.40
2022-11-13T18:00:13.348Z,86.90
2022-11-13T18:03:14.930Z,86.50
2022-11-13T18:06:20.242Z,86.80
2022-11-13T18:09:21.820Z,86.70
2022-11-13T18:12:23.497Z,87.00
2022-11-13T18:15:25.320Z,86.70
2022-11-13T18:18:26.862Z,88.30
2022-11-13T18:21:30.952Z,87.60
2022-11-13T18:24:32.597Z,88.10
2022-11-13T18:27:34.423Z,88.60
2022-11-13T18:30:39.337Z,88.50
2022-11-13T18:33:41.087Z,88.90
2022-11-13T18:36:42.828Z,88.70
2022-11-13T18:39:44.403Z,89.60
2022-11-13T18:42:46.040Z,89.20
2022-11-13T18:45:59.704Z,92.00
2022-11-13T18:49:01.269Z,89.80
2022-11-13T18:52:03.301Z,89.40
2022-11-13T18:55:05.202Z,89.40
2022-11-13T18:58:06.792Z,88.50
2022-11-13T19:01:22.848Z,88.30
2022-11-13T19:04:24.847Z,88.40
2022-11-13T19:07:26.452Z,88.10
2022-11-13T19:10:28.057Z,88.00
2022-11-13T19:13:29.583Z,87.70
2022-11-13T19:16:34.373Z,87.30
2022-11-13T19:19:36.255Z,87.90
2022-11-13T19:22:37.897Z,88.20
2022-11-13T19:25:39.572Z,88.30
2022-11-13T19:28:41.941Z,88.40
2022-11-13T19:31:46.440Z,88.70
2022-11-13T19:34:48.072Z,88.90
2022-11-13T19:37:56.554Z,88.30
2022-11-13T19:40:58.161Z,89.00
2022-11-13T19:44:00.292Z,88.40
2022-11-13T19:47:01.863Z,89.10
2022-11-13T19:50:03.604Z,88.90
2022-11-13T19:53:06.410Z,89.00
2022-11-13T19:56:08.209Z,89.30
2022-11-13T19:59:11.460Z,88.90
2022-11-13T20:02:14.231Z,88.90
2022-11-13T20:05:15.893Z,89.30
2022-11-13T20:08:17.443Z,89.30
2022-11-13T20:11:19.229Z,89.40
2022-11-13T20:14:20.804Z,89.20
2022-11-13T20:17:23.045Z,89.20
2022-11-13T20:20:24.574Z,89.50
2022-11-13T20:23:26.399Z,89.20
2022-11-13T20:26:28.284Z,89.30
2022-11-13T20:29:32.200Z,89.20
2022-11-13T20:32:38.076Z,88.80
2022-11-13T20:35:41.327Z,89.40
2022-11-13T20:38:46.897Z,89.70
2022-11-13T20:41:48.499Z,89.30
2022-11-13T20:44:50.036Z,90.30
2022-11-13T20:47:51.615Z,90.20
2022-11-13T20:50:53.124Z,89.10
2022-11-13T20:53:55.277Z,89.40
2022-11-13T20:56:56.916Z,89.10
2022-11-13T20:59:58.758Z,89.00
2022-11-13T21:03:00.447Z,89.20
2022-11-13T21:06:07.113Z,90.40
2022-11-13T21:09:09.306Z,90.60
2022-11-13T21:12:10.830Z,89.80
2022-11-13T21:15:12.478Z,89.90
2022-11-13T21:18:14.069Z,90.00
2022-11-13T21:21:19.405Z,90.00
2022-11-13T21:24:21.073Z,90.40
2022-11-13T21:27:28.042Z,90.00
2022-11-13T21:30:29.672Z,90.80
2022-11-13T21:33:39.237Z,90.80
2022-11-13T21:36:40.836Z,89.40
2022-11-13T21:39:42.453Z,90.60
2022-11-13T21:42:44.008Z,90.70
2022-11-13T21:45:45.582Z,90.80
2022-11-13T21:48:47.955Z,90.80
2022-11-13T21:51:49.542Z,90.70
2022-11-13T21:54:51.333Z,91.30
2022-11-13T21:57:52.851Z,90.90
2022-11-13T22:00:55.721Z,90.90
2022-11-13T22:03:57.537Z,91.20
2022-11-13T22:06:59.178Z,92.20
2022-11-13T22:10:04.176Z,90.90
2022-11-13T22:13:09.696Z,91.10
2022-11-13T22:16:12.621Z,91.30
2022-11-13T22:19:21.413Z,91.60
2022-11-13T22:22:29.471Z,91.90
2022-11-13T22:25:31.015Z,91.50
2022-11-13T22:28:34.313Z,91.00
2022-11-13T22:31:36.324Z,91.00
2022-11-13T22:34:37.877Z,91.20
2022-11-13T22:37:39.531Z,91.20
2022-11-13T22:40:41.084Z,91.40
2022-11-13T22:43:43.969Z,91.10
2022-11-13T22:46:45.604Z,91.40
2022-11-13T22:49:47.397Z,91.80
2022-11-13T22:52:48.950Z,91.40
2022-11-13T22:55:50.546Z,91.60
2022-11-13T22:58:53.918Z,91.90
2022-11-13T23:01:58.643Z,91.40
2022-11-13T23:05:00.177Z,91.50
2022-11-13T23:08:01.740Z,91.50
2022-11-13T23:11:03.493Z,91.30
2022-11-13T23:14:08.027Z,91.50
2022-11-13T23:17:12.526Z,91.60
2022-11-13T23:20:14.550Z,90.90
2022-11-13T23:23:19.409Z,91.90
2022-11-13T23:26:21.625Z,91.10
2022-11-13T23:29:23.639Z,91.60
2022-11-13T23:32:25.267Z,91.70
2022-11-13T23:35:27.136Z,92.30
2022-11-13T23:38:29.044Z,92.50
2022-11-13T23:41:30.932Z,91.80
2022-11-13T23:44:32.527Z,91.80
2022-11-13T23:47:34.114Z,91.70
2022-11-13T23:50:36.638Z,91.70
2022-11-13T23:53:38.237Z,91.70
2022-11-13T23:56:39.843Z,91.70
2022-11-13T23:59:41.398Z,91.80
